Buoy 63568

sailwx.info

Track history (hours):
 
Tides and Currents Weather Stations Pressure Air Temp Water Temp Dewpoint Dewpoint Depression Visibility Wind Speed Wind Dir Waves Ship Positions

Drifting buoy 63568

Last reported at 2017-Nov-25 01:00 UTC. Time now 2017-Nov-25 01:42 UTC.
Position N 73°43' E 016°32'.

Water temperature 5.8 ° C

Date/timePositionNaut miles runAvg speedWind from/ knotsBaromVisibWave heightAir tempDewpointWater temp
2017-Nov-25 01:00N 73°43' E 016°32'0 0.0 5.8
2017-Nov-25 00:00N 73°43' E 016°32'1 0.3 5.7
2017-Nov-24 22:00N 73°43' E 016°32'0 0.0 5.7
2017-Nov-24 21:00N 73°43' E 016°32'1 1.3 5.7
2017-Nov-24 20:00N 73°43' E 016°37'2 2.3 5.9
2017-Nov-24 19:00N 73°43' E 016°29'1 1.5 6.0
2017-Nov-24 18:00N 73°44' E 016°32'1 0.7 5.9
2017-Nov-24 17:00N 73°44' E 016°29'1 1.0 6.1
2017-Nov-24 16:00N 73°44' E 016°26'1 0.7 6.2
2017-Nov-24 15:00N 73°44' E 016°27'1 0.9 6.1
2017-Nov-24 14:00N 73°44' E 016°25'0 0.2 6.1
2017-Nov-24 13:00N 73°44' E 016°24'0 0.3 6.1
2017-Nov-24 12:00N 73°44' E 016°25'1 0.6 6.0
2017-Nov-24 11:00N 73°45' E 016°26'0 0.2 6.1
2017-Nov-24 10:00N 73°45' E 016°26'1 0.6 6.0
2017-Nov-24 09:00N 73°46' E 016°26'0 0.0 5.9
2017-Nov-24 08:00N 73°46' E 016°26'2 1.8 5.8
2017-Nov-24 07:00N 73°47' E 016°26'0 0.0 5.7
2017-Nov-24 06:00N 73°47' E 016°26'1 0.4 5.6
2017-Nov-24 04:00N 73°48' E 016°23'0 0.3 5.0
2017-Nov-24 03:00N 73°48' E 016°25'1 0.7 5.5
2017-Nov-24 02:00N 73°49' E 016°23'1 0.8 5.1
2017-Nov-24 01:00N 73°49' E 016°25'0 0.0 4.9
2017-Nov-24 00:00N 73°49' E 016°25'1 0.6 4.9
2017-Nov-23 23:00N 73°50' E 016°26'0 0.0 4.9
2017-Nov-23 22:00N 73°50' E 016°26'1 0.9 5.0
2017-Nov-23 21:00N 73°50' E 016°28'1 0.6 5.1
2017-Nov-23 20:00N 73°50' E 016°28'1 0.6 5.2
2017-Nov-23 19:00N 73°50' E 016°28'1 1.0 5.5
2017-Nov-23 18:00N 73°51' E 016°25'1 1.4 5.4
2017-Nov-23 17:00N 73°52' E 016°23'0 0.2 5.4
2017-Nov-23 16:00N 73°52' E 016°22'1 0.9 5.5
2017-Nov-23 15:00N 73°53' E 016°20'1 0.7 7.0
2017-Nov-23 14:00N 73°52' E 016°21'1 0.8 5.4
2017-Nov-23 13:00N 73°52' E 016°18'1 0.5 5.4
2017-Nov-23 12:00N 73°52' E 016°20'1 1.2 5.4
2017-Nov-23 11:00N 73°52' E 016°24'0 0.2 5.5
2017-Nov-23 10:00N 73°52' E 016°25'2 1.6 5.5
2017-Nov-23 09:00N 73°53' E 016°28'1 0.6 5.4
2017-Nov-23 08:00N 73°54' E 016°28'1 0.8 5.3
2017-Nov-23 07:00N 73°55' E 016°29'1 0.6 5.1
2017-Nov-23 05:00N 73°56' E 016°31'1 0.6 5.0
2017-Nov-23 03:00N 73°56' E 016°34'0 0.0 4.8
2017-Nov-23 01:00N 73°56' E 016°34'0 0.0 4.8
2017-Nov-23 00:00N 73°56' E 016°34'1 0.9 4.8
2017-Nov-22 23:00N 73°57' E 016°37'0 0.5 4.8
2017-Nov-22 22:00N 73°57' E 016°38'0 0.0 4.8
2017-Nov-22 21:00N 73°57' E 016°38'1 0.8 4.8
2017-Nov-22 20:00N 73°58' E 016°40'0 0.2 4.8
2017-Nov-22 19:00N 73°58' E 016°40'2 1.9 4.8
2017-Nov-22 18:00N 73°59' E 016°41'1 0.7 4.8
2017-Nov-22 17:00N 74°00' E 016°40'1 0.8 4.8
2017-Nov-22 16:00N 73°59' E 016°38'1 0.8 4.8
2017-Nov-22 15:00N 74°00' E 016°37'1 0.6 4.8
2017-Nov-22 14:00N 73°59' E 016°37'1 0.6 4.8
2017-Nov-22 13:00N 73°59' E 016°38'1 0.7 4.8
2017-Nov-22 12:00N 73°59' E 016°37'1 0.6 4.8
2017-Nov-22 11:00N 73°59' E 016°37'1 0.8 4.8
2017-Nov-22 10:00N 73°59' E 016°40'1 0.9 4.8
2017-Nov-22 09:00N 73°59' E 016°43'0 0.2 4.8
2017-Nov-22 08:00N 73°59' E 016°43'1 0.8 4.8
2017-Nov-22 07:00N 74°00' E 016°45'1 0.6 4.8
2017-Nov-22 06:00N 74°01' E 016°44'1 0.6 4.9
2017-Nov-22 05:00N 74°01' E 016°44'1 0.6 4.9
2017-Nov-22 04:00N 74°01' E 016°44'1 0.3 4.9
2017-Nov-22 02:00N 74°01' E 016°43'1 0.8 4.9
2017-Nov-22 01:00N 74°01' E 016°44'0 0.5 4.9
2017-Nov-22 00:00N 74°01' E 016°46'0 0.0 4.9
2017-Nov-21 23:00N 74°01' E 016°46'0 0.5 4.9
2017-Nov-21 22:00N 74°01' E 016°48'0 0.5 4.9
2017-Nov-21 21:00N 74°01' E 016°50'1 0.7 4.9
2017-Nov-21 20:00N 74°01' E 016°51'0 0.2 4.8
2017-Nov-21 19:00N 74°01' E 016°50'1 0.7 4.8
2017-Nov-21 18:00N 74°02' E 016°52'1 0.8 4.8
2017-Nov-21 17:00N 74°02' E 016°50'1 0.6 4.8
2017-Nov-21 16:00N 74°03' E 016°50'1 0.9 4.9
2017-Nov-21 15:00N 74°02' E 016°47'0 0.3 4.9
2017-Nov-21 14:00N 74°02' E 016°46'1 1.2 4.9
2017-Nov-21 13:00N 74°01' E 016°45'0 0.2 4.9
2017-Nov-21 12:00N 74°01' E 016°46'1 1.2 4.9
2017-Nov-21 11:00N 74°01' E 016°49'1 0.6 4.9
2017-Nov-21 10:00N 74°00' E 016°49'2 1.0 4.9
2017-Nov-21 08:00N 74°01' E 016°56'1 0.6 4.9
2017-Nov-21 07:00N 74°01' E 016°55'0 0.5 4.9
2017-Nov-21 06:00N 74°01' E 016°57'1 0.4 4.9
2017-Nov-21 04:00N 74°02' E 016°55'0 0.1 4.9
2017-Nov-21 02:00N 74°02' E 016°55'1 0.6 4.9
2017-Nov-21 01:00N 74°01' E 016°55'0 0.2 4.9
2017-Nov-21 00:00N 74°01' E 016°56'0 0.5 4.9
2017-Nov-20 23:00N 74°01' E 016°58'1 0.3 4.9
2017-Nov-20 21:00N 74°01' E 016°59'1 0.4 4.9
2017-Nov-20 19:00N 74°01' E 017°01'0 0.0 4.9
2017-Nov-20 18:00N 74°01' E 017°01'1 0.6 4.9
2017-Nov-20 17:00N 74°02' E 017°00'1 0.6 4.9
2017-Nov-20 16:00N 74°01' E 016°59'1 0.6 4.9
2017-Nov-20 15:00N 74°02' E 016°59'1 1.3 5.0
2017-Nov-20 14:00N 74°01' E 016°57'1 0.6 5.0
2017-Nov-20 13:00N 74°00' E 016°56'1 0.6 5.0
2017-Nov-20 12:00N 73°59' E 016°56'1 0.8 5.0
2017-Nov-20 11:00N 73°59' E 016°58'1 0.7 5.0
2017-Nov-20 10:00N 73°58' E 016°59'1 0.4 5.0
2017-Nov-20 08:00N 73°58' E 017°02'0 0.2 5.0
2017-Nov-20 07:00N 73°58' E 017°02'1 0.8 5.0
2017-Nov-20 06:00N 73°58' E 017°04'0 0.5 5.0
2017-Nov-20 05:00N 73°58' E 017°02'0 0.0 5.0
2017-Nov-20 04:00N 73°58' E 017°02'1 0.6 5.0
2017-Nov-20 03:00N 73°59' E 017°03'0 0.2 5.0
2017-Nov-20 02:00N 73°59' E 017°04'0 0.2 5.0
2017-Nov-20 01:00N 73°59' E 017°03'0 0.3 5.0
2017-Nov-20 00:00N 73°59' E 017°04'0 0.0 5.0
2017-Nov-19 23:00N 73°59' E 017°04'0 0.5 5.0
2017-Nov-19 22:00N 73°59' E 017°06'1 0.6 5.0
2017-Nov-19 21:00N 73°59' E 017°05'0 0.5 5.0
2017-Nov-19 20:00N 73°59' E 017°07'0 0.2 5.1
2017-Nov-19 19:00N 73°59' E 017°08'1 1.2 5.0
2017-Nov-19 18:00N 74°01' E 017°09'1 0.6 5.1
2017-Nov-19 17:00N 74°01' E 017°08'0 0.0 5.0
2017-Nov-19 16:00N 74°01' E 017°08'1 0.6 5.1
2017-Nov-19 15:00N 74°02' E 017°09'1 0.8 5.0
2017-Nov-19 14:00N 74°02' E 017°07'1 1.3 5.1
2017-Nov-19 13:00N 74°02' E 017°03'0 0.0 5.0
2017-Nov-19 12:00N 74°02' E 017°03'0 0.2 5.0
2017-Nov-19 11:00N 74°02' E 017°04'1 1.0 5.0
2017-Nov-19 10:00N 74°01' E 017°07'0 0.3 5.0
2017-Nov-19 09:00N 74°01' E 017°05'0 0.2 5.0
2017-Nov-19 07:00N 74°01' E 017°07'2 0.8 5.0
2017-Nov-19 05:00N 74°02' E 017°11'0 0.0 5.0
2017-Nov-19 04:00N 74°02' E 017°11'1 1.3 5.0
2017-Nov-19 03:00N 74°04' E 017°10'0 0.3 5.0
2017-Nov-19 02:00N 74°04' E 017°11'1 1.0 5.0
2017-Nov-19 01:00N 74°04' E 017°07'1 0.6 5.0
2017-Nov-19 00:00N 74°04' E 017°07'0 0.0 5.0
2017-Nov-18 23:00N 74°04' E 017°07'1 0.6 5.1
2017-Nov-18 22:00N 74°04' E 017°07'1 0.6 5.1
2017-Nov-18 21:00N 74°03' E 017°07'0 0.0 5.0
2017-Nov-18 20:00N 74°03' E 017°07'0 0.3 5.0
2017-Nov-18 19:00N 74°03' E 017°08'1 0.8 5.0
2017-Nov-18 18:00N 74°04' E 017°10'0 0.1 4.9
2017-Nov-18 16:00N 74°04' E 017°10'1 0.6 4.8
2017-Nov-18 15:00N 74°04' E 017°09'1 0.7 4.7
2017-Nov-18 14:00N 74°04' E 017°08'1 0.7 4.7
2017-Nov-18 12:00N 74°03' E 017°04'1 0.6 4.7
2017-Nov-18 11:00N 74°02' E 017°04'1 1.2 4.7
2017-Nov-18 10:00N 74°01' E 017°04'1 0.7 4.7
2017-Nov-18 09:00N 74°01' E 017°02'2 0.9 4.7
2017-Nov-18 07:00N 74°00' E 017°07'1 0.8 4.8
2017-Nov-18 06:00N 73°59' E 017°08'1 0.6 4.8
2017-Nov-18 05:00N 74°00' E 017°08'0 0.2 4.7
2017-Nov-18 04:00N 74°00' E 017°08'1 0.3 4.7
2017-Nov-18 02:00N 74°01' E 017°08'0 0.1 4.7
2017-Nov-18 00:00N 74°01' E 017°07'1 0.7 4.7
2017-Nov-17 23:00N 74°00' E 017°06'1 0.6 4.7
2017-Nov-17 22:00N 73°59' E 017°07'0 0.0 4.8
2017-Nov-17 21:00N 73°59' E 017°07'1 1.5 4.8
2017-Nov-17 20:00N 73°59' E 017°11'1 1.3 4.8
2017-Nov-17 19:00N 74°00' E 017°10'0 0.5 4.9
2017-Nov-17 18:00N 74°00' E 017°11'1 0.6 4.9
2017-Nov-17 17:00N 74°01' E 017°11'0 0.3 4.9
2017-Nov-17 16:00N 74°01' E 017°13'1 1.2 4.9
2017-Nov-17 15:00N 74°01' E 017°09'0 0.3 4.9
2017-Nov-17 14:00N 74°01' E 017°10'0 0.2 4.9
2017-Nov-17 13:00N 74°01' E 017°10'1 0.9 4.9
2017-Nov-17 12:00N 74°01' E 017°07'0 0.2 4.8
2017-Nov-17 11:00N 74°01' E 017°08'1 0.8 4.9
2017-Nov-17 10:00N 74°00' E 017°06'1 0.6 4.9
2017-Nov-17 09:00N 73°59' E 017°06'1 0.3 4.9
2017-Nov-17 06:00N 73°59' E 017°10'1 0.9 4.9
2017-Nov-17 05:00N 73°59' E 017°12'1 0.8 4.9
2017-Nov-17 04:00N 73°59' E 017°14'0 0.0 5.0
2017-Nov-17 03:00N 73°59' E 017°14'1 0.6 5.0
2017-Nov-17 02:00N 74°00' E 017°14'1 0.7 5.0
2017-Nov-17 01:00N 73°59' E 017°13'1 0.9 5.0
2017-Nov-17 00:00N 74°00' E 017°10'0 0.0 5.0
2017-Nov-16 22:00N 74°00' E 017°10'1 0.6 5.0
2017-Nov-16 21:00N 73°59' E 017°11'1 0.6 5.0
2017-Nov-16 20:00N 73°59' E 017°11'0 0.5 5.0
2017-Nov-16 19:00N 73°59' E 017°13'0 0.0 5.0
2017-Nov-16 18:00N 73°59' E 017°13'1 0.7 5.0
2017-Nov-16 17:00N 73°59' E 017°16'1 0.8 5.1
2017-Nov-16 16:00N 73°59' E 017°14'0 0.3 5.1
2017-Nov-16 15:00N 73°59' E 017°13'0 0.3 5.1
2017-Nov-16 14:00N 73°59' E 017°11'0 0.0 5.1
2017-Nov-16 13:00N 73°59' E 017°11'0 0.2 5.1
2017-Nov-16 12:00N 73°59' E 017°11'1 0.7 5.1
2017-Nov-16 11:00N 73°59' E 017°10'0 0.2 5.1
2017-Nov-16 10:00N 73°59' E 017°09'1 1.4 5.0
2017-Nov-16 09:00N 73°58' E 017°11'0 0.0 5.0
2017-Nov-16 08:00N 73°58' E 017°11'1 1.0 5.0
2017-Nov-16 07:00N 73°58' E 017°14'1 1.2 5.1
2017-Nov-16 06:00N 73°57' E 017°14'1 0.8 5.1
2017-Nov-16 05:00N 73°57' E 017°17'1 0.6 5.0
2017-Nov-16 04:00N 73°56' E 017°17'1 1.2 5.2
2017-Nov-16 03:00N 73°58' E 017°17'1 1.0 5.2
2017-Nov-16 02:00N 73°58' E 017°20'1 0.8 5.2
2017-Nov-16 01:00N 73°58' E 017°17'0 0.0 5.2
2017-Nov-16 00:00N 73°58' E 017°17'0 0.5 5.2
2017-Nov-15 23:00N 73°58' E 017°15'0 0.3 5.2
2017-Nov-15 22:00N 73°58' E 017°14'1 0.6 5.2
2017-Nov-15 21:00N 73°58' E 017°13'1 0.6 5.2
2017-Nov-15 20:00N 73°57' E 017°14'1 0.7 5.2
2017-Nov-15 19:00N 73°57' E 017°16'1 0.6 5.2
2017-Nov-15 18:00N 73°56' E 017°17'1 1.0 5.2
2017-Nov-15 17:00N 73°57' E 017°20'0 0.2 5.2
2017-Nov-15 16:00N 73°57' E 017°19'0 0.0 5.3
2017-Nov-15 15:00N 73°57' E 017°19'0 0.0 5.2
2017-Nov-15 14:00N 73°57' E 017°19'0 0.5 5.2
2017-Nov-15 13:00N 73°57' E 017°17'1 0.6 5.2
2017-Nov-15 11:00N 73°56' E 017°17'0 0.5 5.1
2017-Nov-15 10:00N 73°56' E 017°16'0 0.5 5.1
2017-Nov-15 09:00N 73°56' E 017°17'1 0.7 5.2
2017-Nov-15 08:00N 73°55' E 017°16'1 0.8 5.2
2017-Nov-15 07:00N 73°55' E 017°18'1 0.6 5.3
2017-Nov-15 06:00N 73°55' E 017°18'1 1.0 5.2
2017-Nov-15 05:00N 73°55' E 017°21'0 0.3 5.2
2017-Nov-15 04:00N 73°55' E 017°22'1 0.7 5.3
2017-Nov-15 03:00N 73°55' E 017°23'0 0.2 5.4
2017-Nov-15 02:00N 73°55' E 017°23'0 0.0 5.3
2017-Nov-15 01:00N 73°55' E 017°23'   5.2
Track history (hours):
 
Tides and Currents Weather Stations Pressure Air Temp Water Temp Dewpoint Dewpoint Depression Visibility Wind Speed Wind Dir Waves Ship Positions

Drifting buoy 63568

Last reported at 2017-Nov-25 01:00 UTC. Time now 2017-Nov-25 01:42 UTC.
Position N 73°43' E 016°32'.

Water temperature 5.8 ° C

Date/timePositionNaut miles runAvg speedWind from/ knotsBaromVisibWave heightAir tempDewpointWater temp
2017-Nov-25 01:00N 73°43' E 016°32'0 0.0 5.8
2017-Nov-25 00:00N 73°43' E 016°32'1 0.3 5.7
2017-Nov-24 22:00N 73°43' E 016°32'0 0.0 5.7
2017-Nov-24 21:00N 73°43' E 016°32'1 1.3 5.7
2017-Nov-24 20:00N 73°43' E 016°37'2 2.3 5.9
2017-Nov-24 19:00N 73°43' E 016°29'1 1.5 6.0
2017-Nov-24 18:00N 73°44' E 016°32'1 0.7 5.9
2017-Nov-24 17:00N 73°44' E 016°29'1 1.0 6.1
2017-Nov-24 16:00N 73°44' E 016°26'1 0.7 6.2
2017-Nov-24 15:00N 73°44' E 016°27'1 0.9 6.1
2017-Nov-24 14:00N 73°44' E 016°25'0 0.2 6.1
2017-Nov-24 13:00N 73°44' E 016°24'0 0.3 6.1
2017-Nov-24 12:00N 73°44' E 016°25'1 0.6 6.0
2017-Nov-24 11:00N 73°45' E 016°26'0 0.2 6.1
2017-Nov-24 10:00N 73°45' E 016°26'1 0.6 6.0
2017-Nov-24 09:00N 73°46' E 016°26'0 0.0 5.9
2017-Nov-24 08:00N 73°46' E 016°26'2 1.8 5.8
2017-Nov-24 07:00N 73°47' E 016°26'0 0.0 5.7
2017-Nov-24 06:00N 73°47' E 016°26'1 0.4 5.6
2017-Nov-24 04:00N 73°48' E 016°23'0 0.3 5.0
2017-Nov-24 03:00N 73°48' E 016°25'1 0.7 5.5
2017-Nov-24 02:00N 73°49' E 016°23'1 0.8 5.1
2017-Nov-24 01:00N 73°49' E 016°25'0 0.0 4.9
2017-Nov-24 00:00N 73°49' E 016°25'1 0.6 4.9
2017-Nov-23 23:00N 73°50' E 016°26'0 0.0 4.9
2017-Nov-23 22:00N 73°50' E 016°26'1 0.9 5.0
2017-Nov-23 21:00N 73°50' E 016°28'1 0.6 5.1
2017-Nov-23 20:00N 73°50' E 016°28'1 0.6 5.2
2017-Nov-23 19:00N 73°50' E 016°28'1 1.0 5.5
2017-Nov-23 18:00N 73°51' E 016°25'1 1.4 5.4
2017-Nov-23 17:00N 73°52' E 016°23'0 0.2 5.4
2017-Nov-23 16:00N 73°52' E 016°22'1 0.9 5.5
2017-Nov-23 15:00N 73°53' E 016°20'1 0.7 7.0
2017-Nov-23 14:00N 73°52' E 016°21'1 0.8 5.4
2017-Nov-23 13:00N 73°52' E 016°18'1 0.5 5.4
2017-Nov-23 12:00N 73°52' E 016°20'1 1.2 5.4
2017-Nov-23 11:00N 73°52' E 016°24'0 0.2 5.5
2017-Nov-23 10:00N 73°52' E 016°25'2 1.6 5.5
2017-Nov-23 09:00N 73°53' E 016°28'1 0.6 5.4
2017-Nov-23 08:00N 73°54' E 016°28'1 0.8 5.3
2017-Nov-23 07:00N 73°55' E 016°29'1 0.6 5.1
2017-Nov-23 05:00N 73°56' E 016°31'1 0.6 5.0
2017-Nov-23 03:00N 73°56' E 016°34'0 0.0 4.8
2017-Nov-23 01:00N 73°56' E 016°34'0 0.0 4.8
2017-Nov-23 00:00N 73°56' E 016°34'1 0.9 4.8
2017-Nov-22 23:00N 73°57' E 016°37'0 0.5 4.8
2017-Nov-22 22:00N 73°57' E 016°38'0 0.0 4.8
2017-Nov-22 21:00N 73°57' E 016°38'1 0.8 4.8
2017-Nov-22 20:00N 73°58' E 016°40'0 0.2 4.8
2017-Nov-22 19:00N 73°58' E 016°40'2 1.9 4.8
2017-Nov-22 18:00N 73°59' E 016°41'1 0.7 4.8
2017-Nov-22 17:00N 74°00' E 016°40'1 0.8 4.8
2017-Nov-22 16:00N 73°59' E 016°38'1 0.8 4.8
2017-Nov-22 15:00N 74°00' E 016°37'1 0.6 4.8
2017-Nov-22 14:00N 73°59' E 016°37'1 0.6 4.8
2017-Nov-22 13:00N 73°59' E 016°38'1 0.7 4.8
2017-Nov-22 12:00N 73°59' E 016°37'1 0.6 4.8
2017-Nov-22 11:00N 73°59' E 016°37'1 0.8 4.8
2017-Nov-22 10:00N 73°59' E 016°40'1 0.9 4.8
2017-Nov-22 09:00N 73°59' E 016°43'0 0.2 4.8
2017-Nov-22 08:00N 73°59' E 016°43'1 0.8 4.8
2017-Nov-22 07:00N 74°00' E 016°45'1 0.6 4.8
2017-Nov-22 06:00N 74°01' E 016°44'1 0.6 4.9
2017-Nov-22 05:00N 74°01' E 016°44'1 0.6 4.9
2017-Nov-22 04:00N 74°01' E 016°44'1 0.3 4.9
2017-Nov-22 02:00N 74°01' E 016°43'1 0.8 4.9
2017-Nov-22 01:00N 74°01' E 016°44'0 0.5 4.9
2017-Nov-22 00:00N 74°01' E 016°46'0 0.0 4.9
2017-Nov-21 23:00N 74°01' E 016°46'0 0.5 4.9
2017-Nov-21 22:00N 74°01' E 016°48'0 0.5 4.9
2017-Nov-21 21:00N 74°01' E 016°50'1 0.7 4.9
2017-Nov-21 20:00N 74°01' E 016°51'0 0.2 4.8
2017-Nov-21 19:00N 74°01' E 016°50'1 0.7 4.8
2017-Nov-21 18:00N 74°02' E 016°52'1 0.8 4.8
2017-Nov-21 17:00N 74°02' E 016°50'1 0.6 4.8
2017-Nov-21 16:00N 74°03' E 016°50'1 0.9 4.9
2017-Nov-21 15:00N 74°02' E 016°47'0 0.3 4.9
2017-Nov-21 14:00N 74°02' E 016°46'1 1.2 4.9
2017-Nov-21 13:00N 74°01' E 016°45'0 0.2 4.9
2017-Nov-21 12:00N 74°01' E 016°46'1 1.2 4.9
2017-Nov-21 11:00N 74°01' E 016°49'1 0.6 4.9
2017-Nov-21 10:00N 74°00' E 016°49'2 1.0 4.9
2017-Nov-21 08:00N 74°01' E 016°56'1 0.6 4.9
2017-Nov-21 07:00N 74°01' E 016°55'0 0.5 4.9
2017-Nov-21 06:00N 74°01' E 016°57'1 0.4 4.9
2017-Nov-21 04:00N 74°02' E 016°55'0 0.1 4.9
2017-Nov-21 02:00N 74°02' E 016°55'1 0.6 4.9
2017-Nov-21 01:00N 74°01' E 016°55'0 0.2 4.9
2017-Nov-21 00:00N 74°01' E 016°56'0 0.5 4.9
2017-Nov-20 23:00N 74°01' E 016°58'1 0.3 4.9
2017-Nov-20 21:00N 74°01' E 016°59'1 0.4 4.9
2017-Nov-20 19:00N 74°01' E 017°01'0 0.0 4.9
2017-Nov-20 18:00N 74°01' E 017°01'1 0.6 4.9
2017-Nov-20 17:00N 74°02' E 017°00'1 0.6 4.9
2017-Nov-20 16:00N 74°01' E 016°59'1 0.6 4.9
2017-Nov-20 15:00N 74°02' E 016°59'1 1.3 5.0
2017-Nov-20 14:00N 74°01' E 016°57'1 0.6 5.0
2017-Nov-20 13:00N 74°00' E 016°56'1 0.6 5.0
2017-Nov-20 12:00N 73°59' E 016°56'1 0.8 5.0
2017-Nov-20 11:00N 73°59' E 016°58'1 0.7 5.0
2017-Nov-20 10:00N 73°58' E 016°59'1 0.4 5.0
2017-Nov-20 08:00N 73°58' E 017°02'0 0.2 5.0
2017-Nov-20 07:00N 73°58' E 017°02'1 0.8 5.0
2017-Nov-20 06:00N 73°58' E 017°04'0 0.5 5.0
2017-Nov-20 05:00N 73°58' E 017°02'0 0.0 5.0
2017-Nov-20 04:00N 73°58' E 017°02'1 0.6 5.0
2017-Nov-20 03:00N 73°59' E 017°03'0 0.2 5.0
2017-Nov-20 02:00N 73°59' E 017°04'0 0.2 5.0
2017-Nov-20 01:00N 73°59' E 017°03'0 0.3 5.0
2017-Nov-20 00:00N 73°59' E 017°04'0 0.0 5.0
2017-Nov-19 23:00N 73°59' E 017°04'0 0.5 5.0
2017-Nov-19 22:00N 73°59' E 017°06'1 0.6 5.0
2017-Nov-19 21:00N 73°59' E 017°05'0 0.5 5.0
2017-Nov-19 20:00N 73°59' E 017°07'0 0.2 5.1
2017-Nov-19 19:00N 73°59' E 017°08'1 1.2 5.0
2017-Nov-19 18:00N 74°01' E 017°09'1 0.6 5.1
2017-Nov-19 17:00N 74°01' E 017°08'0 0.0 5.0
2017-Nov-19 16:00N 74°01' E 017°08'1 0.6 5.1
2017-Nov-19 15:00N 74°02' E 017°09'1 0.8 5.0
2017-Nov-19 14:00N 74°02' E 017°07'1 1.3 5.1
2017-Nov-19 13:00N 74°02' E 017°03'0 0.0 5.0
2017-Nov-19 12:00N 74°02' E 017°03'0 0.2 5.0
2017-Nov-19 11:00N 74°02' E 017°04'1 1.0 5.0
2017-Nov-19 10:00N 74°01' E 017°07'0 0.3 5.0
2017-Nov-19 09:00N 74°01' E 017°05'0 0.2 5.0
2017-Nov-19 07:00N 74°01' E 017°07'2 0.8 5.0
2017-Nov-19 05:00N 74°02' E 017°11'0 0.0 5.0
2017-Nov-19 04:00N 74°02' E 017°11'1 1.3 5.0
2017-Nov-19 03:00N 74°04' E 017°10'0 0.3 5.0
2017-Nov-19 02:00N 74°04' E 017°11'1 1.0 5.0
2017-Nov-19 01:00N 74°04' E 017°07'1 0.6 5.0
2017-Nov-19 00:00N 74°04' E 017°07'0 0.0 5.0
2017-Nov-18 23:00N 74°04' E 017°07'1 0.6 5.1
2017-Nov-18 22:00N 74°04' E 017°07'1 0.6 5.1
2017-Nov-18 21:00N 74°03' E 017°07'0 0.0 5.0
2017-Nov-18 20:00N 74°03' E 017°07'0 0.3 5.0
2017-Nov-18 19:00N 74°03' E 017°08'1 0.8 5.0
2017-Nov-18 18:00N 74°04' E 017°10'0 0.1 4.9
2017-Nov-18 16:00N 74°04' E 017°10'1 0.6 4.8
2017-Nov-18 15:00N 74°04' E 017°09'1 0.7 4.7
2017-Nov-18 14:00N 74°04' E 017°08'1 0.7 4.7
2017-Nov-18 12:00N 74°03' E 017°04'1 0.6 4.7
2017-Nov-18 11:00N 74°02' E 017°04'1 1.2 4.7
2017-Nov-18 10:00N 74°01' E 017°04'1 0.7 4.7
2017-Nov-18 09:00N 74°01' E 017°02'2 0.9 4.7
2017-Nov-18 07:00N 74°00' E 017°07'1 0.8 4.8
2017-Nov-18 06:00N 73°59' E 017°08'1 0.6 4.8
2017-Nov-18 05:00N 74°00' E 017°08'0 0.2 4.7
2017-Nov-18 04:00N 74°00' E 017°08'1 0.3 4.7
2017-Nov-18 02:00N 74°01' E 017°08'0 0.1 4.7
2017-Nov-18 00:00N 74°01' E 017°07'1 0.7 4.7
2017-Nov-17 23:00N 74°00' E 017°06'1 0.6 4.7
2017-Nov-17 22:00N 73°59' E 017°07'0 0.0 4.8
2017-Nov-17 21:00N 73°59' E 017°07'1 1.5 4.8
2017-Nov-17 20:00N 73°59' E 017°11'1 1.3 4.8
2017-Nov-17 19:00N 74°00' E 017°10'0 0.5 4.9
2017-Nov-17 18:00N 74°00' E 017°11'1 0.6 4.9
2017-Nov-17 17:00N 74°01' E 017°11'0 0.3 4.9
2017-Nov-17 16:00N 74°01' E 017°13'1 1.2 4.9
2017-Nov-17 15:00N 74°01' E 017°09'0 0.3 4.9
2017-Nov-17 14:00N 74°01' E 017°10'0 0.2 4.9
2017-Nov-17 13:00N 74°01' E 017°10'1 0.9 4.9
2017-Nov-17 12:00N 74°01' E 017°07'0 0.2 4.8
2017-Nov-17 11:00N 74°01' E 017°08'1 0.8 4.9
2017-Nov-17 10:00N 74°00' E 017°06'1 0.6 4.9
2017-Nov-17 09:00N 73°59' E 017°06'1 0.3 4.9
2017-Nov-17 06:00N 73°59' E 017°10'1 0.9 4.9
2017-Nov-17 05:00N 73°59' E 017°12'1 0.8 4.9
2017-Nov-17 04:00N 73°59' E 017°14'0 0.0 5.0
2017-Nov-17 03:00N 73°59' E 017°14'1 0.6 5.0
2017-Nov-17 02:00N 74°00' E 017°14'1 0.7 5.0
2017-Nov-17 01:00N 73°59' E 017°13'1 0.9 5.0
2017-Nov-17 00:00N 74°00' E 017°10'0 0.0 5.0
2017-Nov-16 22:00N 74°00' E 017°10'1 0.6 5.0
2017-Nov-16 21:00N 73°59' E 017°11'1 0.6 5.0
2017-Nov-16 20:00N 73°59' E 017°11'0 0.5 5.0
2017-Nov-16 19:00N 73°59' E 017°13'0 0.0 5.0
2017-Nov-16 18:00N 73°59' E 017°13'1 0.7 5.0
2017-Nov-16 17:00N 73°59' E 017°16'1 0.8 5.1
2017-Nov-16 16:00N 73°59' E 017°14'0 0.3 5.1
2017-Nov-16 15:00N 73°59' E 017°13'0 0.3 5.1
2017-Nov-16 14:00N 73°59' E 017°11'0 0.0 5.1
2017-Nov-16 13:00N 73°59' E 017°11'0 0.2 5.1
2017-Nov-16 12:00N 73°59' E 017°11'1 0.7 5.1
2017-Nov-16 11:00N 73°59' E 017°10'0 0.2 5.1
2017-Nov-16 10:00N 73°59' E 017°09'1 1.4 5.0
2017-Nov-16 09:00N 73°58' E 017°11'0 0.0 5.0
2017-Nov-16 08:00N 73°58' E 017°11'1 1.0 5.0
2017-Nov-16 07:00N 73°58' E 017°14'1 1.2 5.1
2017-Nov-16 06:00N 73°57' E 017°14'1 0.8 5.1
2017-Nov-16 05:00N 73°57' E 017°17'1 0.6 5.0
2017-Nov-16 04:00N 73°56' E 017°17'1 1.2 5.2
2017-Nov-16 03:00N 73°58' E 017°17'1 1.0 5.2
2017-Nov-16 02:00N 73°58' E 017°20'1 0.8 5.2
2017-Nov-16 01:00N 73°58' E 017°17'0 0.0 5.2
2017-Nov-16 00:00N 73°58' E 017°17'0 0.5 5.2
2017-Nov-15 23:00N 73°58' E 017°15'0 0.3 5.2
2017-Nov-15 22:00N 73°58' E 017°14'1 0.6 5.2
2017-Nov-15 21:00N 73°58' E 017°13'1 0.6 5.2
2017-Nov-15 20:00N 73°57' E 017°14'1 0.7 5.2
2017-Nov-15 19:00N 73°57' E 017°16'1 0.6 5.2
2017-Nov-15 18:00N 73°56' E 017°17'1 1.0 5.2
2017-Nov-15 17:00N 73°57' E 017°20'0 0.2 5.2
2017-Nov-15 16:00N 73°57' E 017°19'0 0.0 5.3
2017-Nov-15 15:00N 73°57' E 017°19'0 0.0 5.2
2017-Nov-15 14:00N 73°57' E 017°19'0 0.5 5.2
2017-Nov-15 13:00N 73°57' E 017°17'1 0.6 5.2
2017-Nov-15 11:00N 73°56' E 017°17'0 0.5 5.1
2017-Nov-15 10:00N 73°56' E 017°16'0 0.5 5.1
2017-Nov-15 09:00N 73°56' E 017°17'1 0.7 5.2
2017-Nov-15 08:00N 73°55' E 017°16'1 0.8 5.2
2017-Nov-15 07:00N 73°55' E 017°18'1 0.6 5.3
2017-Nov-15 06:00N 73°55' E 017°18'1 1.0 5.2
2017-Nov-15 05:00N 73°55' E 017°21'0 0.3 5.2
2017-Nov-15 04:00N 73°55' E 017°22'1 0.7 5.3
2017-Nov-15 03:00N 73°55' E 017°23'0 0.2 5.4
2017-Nov-15 02:00N 73°55' E 017°23'0 0.0 5.3
2017-Nov-15 01:00N 73°55' E 017°23'   5.2

Dump ship's entire track history